Don Juan — WRB6521 — position and weather

sailwx.info

Track history (hours):
 
Tides and Currents Weather Stations Pressure Air Temp Water Temp Dewpoint Dewpoint Depression Visibility Wind Speed Wind Dir Waves Ship Positions

Don Juan

Owner: LYDDON, JOHN A, Bakersfield, CA. More information available from US FCC via Universal Licensing System and Coast Guard Vessel Documentation Center.

Last reported at 2016-Aug-29 19:31 UTC. Time now 2016-Aug-29 19:53 UTC.
Position N 33°37' W 117°55'.

Type: Pleasure craft. MMSI: 366328490.

Date/timePositionNaut miles runAvg speedWind from/ knotsBaromVisibWave heightAir tempDewpointWater temp
2016-Aug-29 19:31N 33°37' W 117°55'0 0.0
2016-Aug-29 18:31N 33°37' W 117°55'0 0.0
2016-Aug-29 17:31N 33°37' W 117°55'0 0.0
2016-Aug-29 16:31N 33°37' W 117°55'0 0.0
2016-Aug-29 15:31N 33°37' W 117°55'0 0.0
2016-Aug-29 14:31N 33°37' W 117°55'0 0.0
2016-Aug-29 13:31N 33°37' W 117°55'0 0.0
2016-Aug-29 12:28N 33°37' W 117°55'0 0.0
2016-Aug-29 11:31N 33°37' W 117°55'0 0.0
2016-Aug-29 10:31N 33°37' W 117°55'0 0.0
2016-Aug-29 09:31N 33°37' W 117°55'0 0.0
2016-Aug-29 08:28N 33°37' W 117°55'0 0.0
2016-Aug-29 07:31N 33°37' W 117°55'0 0.0
2016-Aug-29 06:31N 33°37' W 117°55'0 0.0
2016-Aug-29 05:31N 33°37' W 117°55'0 0.0
2016-Aug-29 04:31N 33°37' W 117°55'0 0.0
2016-Aug-29 03:31N 33°37' W 117°55'0 0.0
2016-Aug-29 02:31N 33°37' W 117°55'0 0.0
2016-Aug-29 01:31N 33°37' W 117°55'0 0.0
2016-Aug-29 00:31N 33°37' W 117°55'0 0.0
2016-Aug-28 23:31N 33°37' W 117°55'0 0.0
2016-Aug-28 22:31N 33°37' W 117°55'0 0.0
2016-Aug-28 21:31N 33°37' W 117°55'0 0.0
2016-Aug-28 20:31N 33°37' W 117°55'0 0.0
2016-Aug-28 19:31N 33°37' W 117°55'0 0.0
2016-Aug-28 18:31N 33°37' W 117°55'0 0.0
2016-Aug-28 17:31N 33°37' W 117°55'0 0.0
2016-Aug-28 16:31N 33°37' W 117°55'0 0.0
2016-Aug-28 15:31N 33°37' W 117°55'0 0.0
2016-Aug-28 14:31N 33°37' W 117°55'0 0.0
2016-Aug-28 13:31N 33°37' W 117°55'0 0.0
2016-Aug-28 12:31N 33°37' W 117°55'0 0.0
2016-Aug-28 11:31N 33°37' W 117°55'0 0.0
2016-Aug-28 10:31N 33°37' W 117°55'0 0.0
2016-Aug-28 09:31N 33°37' W 117°55'0 0.0
2016-Aug-28 08:31N 33°37' W 117°55'0 0.0
2016-Aug-28 07:31N 33°37' W 117°55'0 0.0
2016-Aug-28 06:28N 33°37' W 117°55'0 0.0
2016-Aug-28 05:31N 33°37' W 117°55'0 0.0
2016-Aug-28 04:31N 33°37' W 117°55'0 0.0
2016-Aug-28 03:31N 33°37' W 117°55'0 0.0
2016-Aug-28 02:31N 33°37' W 117°55'0 0.0
2016-Aug-28 01:31N 33°37' W 117°55'0 0.0
2016-Aug-28 00:31N 33°37' W 117°55'0 0.0
2016-Aug-27 23:31N 33°37' W 117°55'0 0.0
2016-Aug-27 22:31N 33°37' W 117°55'0 0.0
2016-Aug-27 21:31N 33°37' W 117°55'0 0.0
2016-Aug-27 20:31N 33°37' W 117°55'0 0.0
2016-Aug-27 19:28N 33°37' W 117°55'0 0.0
2016-Aug-27 18:31N 33°37' W 117°55'0 0.0
2016-Aug-27 17:31N 33°37' W 117°55'0 0.0
2016-Aug-27 16:28N 33°37' W 117°55'0 0.0
2016-Aug-27 15:31N 33°37' W 117°55'0 0.0
2016-Aug-27 14:31N 33°37' W 117°55'0 0.0
2016-Aug-27 13:31N 33°37' W 117°55'0 0.0
2016-Aug-27 12:31N 33°37' W 117°55'0 0.0
2016-Aug-27 11:31N 33°37' W 117°55'0 0.0
2016-Aug-27 10:31N 33°37' W 117°55'0 0.0
2016-Aug-27 09:31N 33°37' W 117°55'0 0.0
2016-Aug-27 08:31N 33°37' W 117°55'0 0.0
2016-Aug-27 07:31N 33°37' W 117°55'0 0.0
2016-Aug-27 06:31N 33°37' W 117°55'0 0.0
2016-Aug-27 04:31N 33°37' W 117°55'0 0.0
2016-Aug-27 03:25N 33°37' W 117°55'49 3.3
2016-Aug-26 12:26N 32°48' W 117°58'8 9.0
2016-Aug-26 11:33N 32°56' W 117°57'21 8.8
2016-Aug-26 09:12N 33°16' W 117°55'7 8.7
2016-Aug-26 08:25N 33°23' W 117°54'14 5.8
2016-Aug-26 06:04N 33°36' W 117°54'1 0.1
2016-Aug-25 21:04N 33°37' W 117°55'0 0.1
2016-Aug-25 20:32N 33°37' W 117°55'0 0.0
2016-Aug-25 19:32N 33°37' W 117°55'0 0.0
2016-Aug-25 18:32N 33°37' W 117°55'0 0.0
2016-Aug-25 17:32N 33°37' W 117°55'0 0.0
2016-Aug-25 16:32N 33°37' W 117°55'0 0.0
2016-Aug-25 15:29N 33°37' W 117°55'0 0.0
2016-Aug-25 14:32N 33°37' W 117°55'0 0.0
2016-Aug-25 13:32N 33°37' W 117°55'0 0.0
2016-Aug-25 12:32N 33°37' W 117°55'0 0.0
2016-Aug-25 11:32N 33°37' W 117°55'0 0.0
2016-Aug-25 10:32N 33°37' W 117°55'0 0.0
2016-Aug-25 09:32N 33°37' W 117°55'0 0.0
2016-Aug-25 08:32N 33°37' W 117°55'0 0.0
2016-Aug-25 07:32N 33°37' W 117°55'0 0.0
2016-Aug-25 06:32N 33°37' W 117°55'0 0.0
2016-Aug-25 04:32N 33°37' W 117°55'0 0.0
2016-Aug-25 03:32N 33°37' W 117°55'0 0.0
2016-Aug-25 02:32N 33°37' W 117°55'0 0.0
2016-Aug-25 01:32N 33°37' W 117°55'0 0.0
2016-Aug-25 00:29N 33°37' W 117°55'0 0.0
2016-Aug-24 23:32N 33°37' W 117°55'0 0.0
2016-Aug-24 22:32N 33°37' W 117°55'0 0.0
2016-Aug-24 21:32N 33°37' W 117°55'0 0.0
2016-Aug-24 20:29N 33°37' W 117°55'0 0.0
2016-Aug-24 19:32N 33°37' W 117°55'0 0.0
2016-Aug-24 18:32N 33°37' W 117°55'0 0.0
2016-Aug-24 17:32N 33°37' W 117°55'0 0.0
2016-Aug-24 16:32N 33°37' W 117°55'0 0.0
2016-Aug-24 15:32N 33°37' W 117°55'0 0.0
2016-Aug-24 14:32N 33°37' W 117°55'0 0.0
2016-Aug-24 13:29N 33°37' W 117°55'0 0.0
2016-Aug-24 12:32N 33°37' W 117°55'0 0.0
2016-Aug-24 11:32N 33°37' W 117°55'0 0.0
2016-Aug-24 10:32N 33°37' W 117°55'0 0.0
2016-Aug-24 09:32N 33°37' W 117°55'0 0.0
2016-Aug-24 08:32N 33°37' W 117°55'0 0.0
2016-Aug-24 07:32N 33°37' W 117°55'0 0.0
2016-Aug-24 06:32N 33°37' W 117°55'0 0.0
2016-Aug-24 04:32N 33°37' W 117°55'0 0.0
2016-Aug-24 03:32N 33°37' W 117°55'0 0.0
2016-Aug-24 02:32N 33°37' W 117°55'0 0.0
2016-Aug-24 01:32N 33°37' W 117°55'0 0.0
2016-Aug-24 00:32N 33°37' W 117°55'0 0.0
2016-Aug-23 23:32N 33°37' W 117°55'0 0.0
2016-Aug-23 22:32N 33°37' W 117°55'0 0.0
2016-Aug-23 21:32N 33°37' W 117°55'0 0.0
2016-Aug-23 20:32N 33°37' W 117°55'0 0.0
2016-Aug-23 19:32N 33°37' W 117°55'0 0.0
2016-Aug-23 18:32N 33°37' W 117°55'0 0.0
2016-Aug-23 17:32N 33°37' W 117°55'0 0.0
2016-Aug-23 16:32N 33°37' W 117°55'0 0.0
2016-Aug-23 15:32N 33°37' W 117°55'0 0.0
2016-Aug-23 14:29N 33°37' W 117°55'0 0.0
2016-Aug-23 13:32N 33°37' W 117°55'0 0.0
2016-Aug-23 12:32N 33°37' W 117°55'0 0.0
2016-Aug-23 11:32N 33°37' W 117°55'0 0.0
2016-Aug-23 10:32N 33°37' W 117°55'0 0.0
2016-Aug-23 09:32N 33°37' W 117°55'0 0.0
2016-Aug-23 08:32N 33°37' W 117°55'0 0.0
2016-Aug-23 07:29N 33°37' W 117°55'0 0.0
2016-Aug-23 06:29N 33°37' W 117°55'0 0.0
2016-Aug-23 05:32N 33°37' W 117°55'0 0.0
2016-Aug-23 04:29N 33°37' W 117°55'0 0.0
2016-Aug-23 03:32N 33°37' W 117°55'0 0.0
2016-Aug-23 02:32N 33°37' W 117°55'0 0.0
2016-Aug-23 01:32N 33°37' W 117°55'0 0.0
2016-Aug-23 00:32N 33°37' W 117°55'0 0.0
2016-Aug-22 23:32N 33°37' W 117°55'0 0.0
2016-Aug-22 22:32N 33°37' W 117°55'0 0.0
2016-Aug-22 21:32N 33°37' W 117°55'0 0.0
2016-Aug-22 20:32N 33°37' W 117°55'0 0.0
2016-Aug-22 19:32N 33°37' W 117°55'0 0.0
2016-Aug-22 18:32N 33°37' W 117°55'0 0.0
2016-Aug-22 17:32N 33°37' W 117°55'0 0.0
2016-Aug-22 16:32N 33°37' W 117°55'0 0.0
2016-Aug-22 15:32N 33°37' W 117°55'0 0.0
2016-Aug-22 14:32N 33°37' W 117°55'0 0.0
2016-Aug-22 13:32N 33°37' W 117°55'0 0.0
2016-Aug-22 12:29N 33°37' W 117°55'0 0.0
2016-Aug-22 11:32N 33°37' W 117°55'0 0.0
2016-Aug-22 10:32N 33°37' W 117°55'0 0.0
2016-Aug-22 09:32N 33°37' W 117°55'0 0.0
2016-Aug-22 08:32N 33°37' W 117°55'0 0.0
2016-Aug-22 07:32N 33°37' W 117°55'0 0.0
2016-Aug-22 06:32N 33°37' W 117°55'0 0.0
2016-Aug-22 05:32N 33°37' W 117°55'0 0.0
2016-Aug-22 04:29N 33°37' W 117°55'0 0.0
2016-Aug-22 03:32N 33°37' W 117°55'0 0.0
2016-Aug-22 02:32N 33°37' W 117°55'0 0.0
2016-Aug-22 01:32N 33°37' W 117°55'0 0.0
2016-Aug-22 00:32N 33°37' W 117°55'0 0.0
2016-Aug-21 23:32N 33°37' W 117°55'0 0.0
2016-Aug-21 22:32N 33°37' W 117°55'0 0.0
2016-Aug-21 21:32N 33°37' W 117°55'0 0.0
2016-Aug-21 20:32N 33°37' W 117°55'0 0.0
2016-Aug-21 19:32N 33°37' W 117°55'0 0.0
2016-Aug-21 18:32N 33°37' W 117°55'0 0.0
2016-Aug-21 17:29N 33°37' W 117°55'0 0.0
2016-Aug-21 16:32N 33°37' W 117°55'0 0.0
2016-Aug-21 15:32N 33°37' W 117°55'0 0.0
2016-Aug-21 14:32N 33°37' W 117°55'0 0.0
2016-Aug-21 13:32N 33°37' W 117°55'0 0.0
2016-Aug-21 12:29N 33°37' W 117°55'0 0.0
2016-Aug-21 11:32N 33°37' W 117°55'0 0.0
2016-Aug-21 10:32N 33°37' W 117°55'0 0.0
2016-Aug-21 09:32N 33°37' W 117°55'0 0.0
2016-Aug-21 08:32N 33°37' W 117°55'0 0.0
2016-Aug-21 07:32N 33°37' W 117°55'0 0.0
2016-Aug-21 06:32N 33°37' W 117°55'0 0.0
2016-Aug-21 05:32N 33°37' W 117°55'0 0.0
2016-Aug-21 04:32N 33°37' W 117°55'0 0.0
2016-Aug-21 03:32N 33°37' W 117°55'0 0.0
2016-Aug-21 02:32N 33°37' W 117°55'0 0.0
2016-Aug-21 01:32N 33°37' W 117°55'0 0.0
2016-Aug-21 00:32N 33°37' W 117°55'0 0.0
2016-Aug-20 23:32N 33°37' W 117°55'0 0.0
2016-Aug-20 22:32N 33°37' W 117°55'0 0.0
2016-Aug-20 21:32N 33°37' W 117°55'0 0.0
2016-Aug-20 20:32N 33°37' W 117°55'0 0.0
2016-Aug-20 19:32N 33°37' W 117°55'0 0.0
2016-Aug-20 18:29N 33°37' W 117°55'0 0.0
2016-Aug-20 17:32N 33°37' W 117°55'0 0.0
2016-Aug-20 16:32N 33°37' W 117°55'0 0.0
2016-Aug-20 15:32N 33°37' W 117°55'0 0.0
2016-Aug-20 14:32N 33°37' W 117°55'0 0.0
2016-Aug-20 13:32N 33°37' W 117°55'0 0.0
2016-Aug-20 12:29N 33°37' W 117°55'0 0.0
2016-Aug-20 11:32N 33°37' W 117°55'0 0.0
2016-Aug-20 10:32N 33°37' W 117°55'0 0.0
2016-Aug-20 09:32N 33°37' W 117°55'0 0.0
2016-Aug-20 08:32N 33°37' W 117°55'0 0.0
2016-Aug-20 07:32N 33°37' W 117°55'0 0.0
2016-Aug-20 06:32N 33°37' W 117°55'0 0.0
2016-Aug-20 05:23N 33°37' W 117°55'0 0.0
2016-Aug-20 04:29N 33°37' W 117°55'0 0.0
2016-Aug-20 03:32N 33°37' W 117°55'0 0.0
2016-Aug-20 02:29N 33°37' W 117°55'0 0.0
2016-Aug-20 01:32N 33°37' W 117°55'0 0.0
2016-Aug-20 00:32N 33°37' W 117°55'0 0.0
2016-Aug-19 23:32N 33°37' W 117°55'0 0.0
2016-Aug-19 22:32N 33°37' W 117°55'0 0.0
2016-Aug-19 21:32N 33°37' W 117°55'0 0.0
2016-Aug-19 20:32N 33°37' W 117°55'0 0.0
2016-Aug-19 19:32N 33°37' W 117°55'  
Track history (hours):
 
Tides and Currents Weather Stations Pressure Air Temp Water Temp Dewpoint Dewpoint Depression Visibility Wind Speed Wind Dir Waves Ship Positions

Don Juan

Owner: LYDDON, JOHN A, Bakersfield, CA. More information available from US FCC via Universal Licensing System and Coast Guard Vessel Documentation Center.

Last reported at 2016-Aug-29 19:31 UTC. Time now 2016-Aug-29 19:53 UTC.
Position N 33°37' W 117°55'.

Type: Pleasure craft. MMSI: 366328490.

Date/timePositionNaut miles runAvg speedWind from/ knotsBaromVisibWave heightAir tempDewpointWater temp
2016-Aug-29 19:31N 33°37' W 117°55'0 0.0
2016-Aug-29 18:31N 33°37' W 117°55'0 0.0
2016-Aug-29 17:31N 33°37' W 117°55'0 0.0
2016-Aug-29 16:31N 33°37' W 117°55'0 0.0
2016-Aug-29 15:31N 33°37' W 117°55'0 0.0
2016-Aug-29 14:31N 33°37' W 117°55'0 0.0
2016-Aug-29 13:31N 33°37' W 117°55'0 0.0
2016-Aug-29 12:28N 33°37' W 117°55'0 0.0
2016-Aug-29 11:31N 33°37' W 117°55'0 0.0
2016-Aug-29 10:31N 33°37' W 117°55'0 0.0
2016-Aug-29 09:31N 33°37' W 117°55'0 0.0
2016-Aug-29 08:28N 33°37' W 117°55'0 0.0
2016-Aug-29 07:31N 33°37' W 117°55'0 0.0
2016-Aug-29 06:31N 33°37' W 117°55'0 0.0
2016-Aug-29 05:31N 33°37' W 117°55'0 0.0
2016-Aug-29 04:31N 33°37' W 117°55'0 0.0
2016-Aug-29 03:31N 33°37' W 117°55'0 0.0
2016-Aug-29 02:31N 33°37' W 117°55'0 0.0
2016-Aug-29 01:31N 33°37' W 117°55'0 0.0
2016-Aug-29 00:31N 33°37' W 117°55'0 0.0
2016-Aug-28 23:31N 33°37' W 117°55'0 0.0
2016-Aug-28 22:31N 33°37' W 117°55'0 0.0
2016-Aug-28 21:31N 33°37' W 117°55'0 0.0
2016-Aug-28 20:31N 33°37' W 117°55'0 0.0
2016-Aug-28 19:31N 33°37' W 117°55'0 0.0
2016-Aug-28 18:31N 33°37' W 117°55'0 0.0
2016-Aug-28 17:31N 33°37' W 117°55'0 0.0
2016-Aug-28 16:31N 33°37' W 117°55'0 0.0
2016-Aug-28 15:31N 33°37' W 117°55'0 0.0
2016-Aug-28 14:31N 33°37' W 117°55'0 0.0
2016-Aug-28 13:31N 33°37' W 117°55'0 0.0
2016-Aug-28 12:31N 33°37' W 117°55'0 0.0
2016-Aug-28 11:31N 33°37' W 117°55'0 0.0
2016-Aug-28 10:31N 33°37' W 117°55'0 0.0
2016-Aug-28 09:31N 33°37' W 117°55'0 0.0
2016-Aug-28 08:31N 33°37' W 117°55'0 0.0
2016-Aug-28 07:31N 33°37' W 117°55'0 0.0
2016-Aug-28 06:28N 33°37' W 117°55'0 0.0
2016-Aug-28 05:31N 33°37' W 117°55'0 0.0
2016-Aug-28 04:31N 33°37' W 117°55'0 0.0
2016-Aug-28 03:31N 33°37' W 117°55'0 0.0
2016-Aug-28 02:31N 33°37' W 117°55'0 0.0
2016-Aug-28 01:31N 33°37' W 117°55'0 0.0
2016-Aug-28 00:31N 33°37' W 117°55'0 0.0
2016-Aug-27 23:31N 33°37' W 117°55'0 0.0
2016-Aug-27 22:31N 33°37' W 117°55'0 0.0
2016-Aug-27 21:31N 33°37' W 117°55'0 0.0
2016-Aug-27 20:31N 33°37' W 117°55'0 0.0
2016-Aug-27 19:28N 33°37' W 117°55'0 0.0
2016-Aug-27 18:31N 33°37' W 117°55'0 0.0
2016-Aug-27 17:31N 33°37' W 117°55'0 0.0
2016-Aug-27 16:28N 33°37' W 117°55'0 0.0
2016-Aug-27 15:31N 33°37' W 117°55'0 0.0
2016-Aug-27 14:31N 33°37' W 117°55'0 0.0
2016-Aug-27 13:31N 33°37' W 117°55'0 0.0
2016-Aug-27 12:31N 33°37' W 117°55'0 0.0
2016-Aug-27 11:31N 33°37' W 117°55'0 0.0
2016-Aug-27 10:31N 33°37' W 117°55'0 0.0
2016-Aug-27 09:31N 33°37' W 117°55'0 0.0
2016-Aug-27 08:31N 33°37' W 117°55'0 0.0
2016-Aug-27 07:31N 33°37' W 117°55'0 0.0
2016-Aug-27 06:31N 33°37' W 117°55'0 0.0
2016-Aug-27 04:31N 33°37' W 117°55'0 0.0
2016-Aug-27 03:25N 33°37' W 117°55'49 3.3
2016-Aug-26 12:26N 32°48' W 117°58'8 9.0
2016-Aug-26 11:33N 32°56' W 117°57'21 8.8
2016-Aug-26 09:12N 33°16' W 117°55'7 8.7
2016-Aug-26 08:25N 33°23' W 117°54'14 5.8
2016-Aug-26 06:04N 33°36' W 117°54'1 0.1
2016-Aug-25 21:04N 33°37' W 117°55'0 0.1
2016-Aug-25 20:32N 33°37' W 117°55'0 0.0
2016-Aug-25 19:32N 33°37' W 117°55'0 0.0
2016-Aug-25 18:32N 33°37' W 117°55'0 0.0
2016-Aug-25 17:32N 33°37' W 117°55'0 0.0
2016-Aug-25 16:32N 33°37' W 117°55'0 0.0
2016-Aug-25 15:29N 33°37' W 117°55'0 0.0
2016-Aug-25 14:32N 33°37' W 117°55'0 0.0
2016-Aug-25 13:32N 33°37' W 117°55'0 0.0
2016-Aug-25 12:32N 33°37' W 117°55'0 0.0
2016-Aug-25 11:32N 33°37' W 117°55'0 0.0
2016-Aug-25 10:32N 33°37' W 117°55'0 0.0
2016-Aug-25 09:32N 33°37' W 117°55'0 0.0
2016-Aug-25 08:32N 33°37' W 117°55'0 0.0
2016-Aug-25 07:32N 33°37' W 117°55'0 0.0
2016-Aug-25 06:32N 33°37' W 117°55'0 0.0
2016-Aug-25 04:32N 33°37' W 117°55'0 0.0
2016-Aug-25 03:32N 33°37' W 117°55'0 0.0
2016-Aug-25 02:32N 33°37' W 117°55'0 0.0
2016-Aug-25 01:32N 33°37' W 117°55'0 0.0
2016-Aug-25 00:29N 33°37' W 117°55'0 0.0
2016-Aug-24 23:32N 33°37' W 117°55'0 0.0
2016-Aug-24 22:32N 33°37' W 117°55'0 0.0
2016-Aug-24 21:32N 33°37' W 117°55'0 0.0
2016-Aug-24 20:29N 33°37' W 117°55'0 0.0
2016-Aug-24 19:32N 33°37' W 117°55'0 0.0
2016-Aug-24 18:32N 33°37' W 117°55'0 0.0
2016-Aug-24 17:32N 33°37' W 117°55'0 0.0
2016-Aug-24 16:32N 33°37' W 117°55'0 0.0
2016-Aug-24 15:32N 33°37' W 117°55'0 0.0
2016-Aug-24 14:32N 33°37' W 117°55'0 0.0
2016-Aug-24 13:29N 33°37' W 117°55'0 0.0
2016-Aug-24 12:32N 33°37' W 117°55'0 0.0
2016-Aug-24 11:32N 33°37' W 117°55'0 0.0
2016-Aug-24 10:32N 33°37' W 117°55'0 0.0
2016-Aug-24 09:32N 33°37' W 117°55'0 0.0
2016-Aug-24 08:32N 33°37' W 117°55'0 0.0
2016-Aug-24 07:32N 33°37' W 117°55'0 0.0
2016-Aug-24 06:32N 33°37' W 117°55'0 0.0
2016-Aug-24 04:32N 33°37' W 117°55'0 0.0
2016-Aug-24 03:32N 33°37' W 117°55'0 0.0
2016-Aug-24 02:32N 33°37' W 117°55'0 0.0
2016-Aug-24 01:32N 33°37' W 117°55'0 0.0
2016-Aug-24 00:32N 33°37' W 117°55'0 0.0
2016-Aug-23 23:32N 33°37' W 117°55'0 0.0
2016-Aug-23 22:32N 33°37' W 117°55'0 0.0
2016-Aug-23 21:32N 33°37' W 117°55'0 0.0
2016-Aug-23 20:32N 33°37' W 117°55'0 0.0
2016-Aug-23 19:32N 33°37' W 117°55'0 0.0
2016-Aug-23 18:32N 33°37' W 117°55'0 0.0
2016-Aug-23 17:32N 33°37' W 117°55'0 0.0
2016-Aug-23 16:32N 33°37' W 117°55'0 0.0
2016-Aug-23 15:32N 33°37' W 117°55'0 0.0
2016-Aug-23 14:29N 33°37' W 117°55'0 0.0
2016-Aug-23 13:32N 33°37' W 117°55'0 0.0
2016-Aug-23 12:32N 33°37' W 117°55'0 0.0
2016-Aug-23 11:32N 33°37' W 117°55'0 0.0
2016-Aug-23 10:32N 33°37' W 117°55'0 0.0
2016-Aug-23 09:32N 33°37' W 117°55'0 0.0
2016-Aug-23 08:32N 33°37' W 117°55'0 0.0
2016-Aug-23 07:29N 33°37' W 117°55'0 0.0
2016-Aug-23 06:29N 33°37' W 117°55'0 0.0
2016-Aug-23 05:32N 33°37' W 117°55'0 0.0
2016-Aug-23 04:29N 33°37' W 117°55'0 0.0
2016-Aug-23 03:32N 33°37' W 117°55'0 0.0
2016-Aug-23 02:32N 33°37' W 117°55'0 0.0
2016-Aug-23 01:32N 33°37' W 117°55'0 0.0
2016-Aug-23 00:32N 33°37' W 117°55'0 0.0
2016-Aug-22 23:32N 33°37' W 117°55'0 0.0
2016-Aug-22 22:32N 33°37' W 117°55'0 0.0
2016-Aug-22 21:32N 33°37' W 117°55'0 0.0
2016-Aug-22 20:32N 33°37' W 117°55'0 0.0
2016-Aug-22 19:32N 33°37' W 117°55'0 0.0
2016-Aug-22 18:32N 33°37' W 117°55'0 0.0
2016-Aug-22 17:32N 33°37' W 117°55'0 0.0
2016-Aug-22 16:32N 33°37' W 117°55'0 0.0
2016-Aug-22 15:32N 33°37' W 117°55'0 0.0
2016-Aug-22 14:32N 33°37' W 117°55'0 0.0
2016-Aug-22 13:32N 33°37' W 117°55'0 0.0
2016-Aug-22 12:29N 33°37' W 117°55'0 0.0
2016-Aug-22 11:32N 33°37' W 117°55'0 0.0
2016-Aug-22 10:32N 33°37' W 117°55'0 0.0
2016-Aug-22 09:32N 33°37' W 117°55'0 0.0
2016-Aug-22 08:32N 33°37' W 117°55'0 0.0
2016-Aug-22 07:32N 33°37' W 117°55'0 0.0
2016-Aug-22 06:32N 33°37' W 117°55'0 0.0
2016-Aug-22 05:32N 33°37' W 117°55'0 0.0
2016-Aug-22 04:29N 33°37' W 117°55'0 0.0
2016-Aug-22 03:32N 33°37' W 117°55'0 0.0
2016-Aug-22 02:32N 33°37' W 117°55'0 0.0
2016-Aug-22 01:32N 33°37' W 117°55'0 0.0
2016-Aug-22 00:32N 33°37' W 117°55'0 0.0
2016-Aug-21 23:32N 33°37' W 117°55'0 0.0
2016-Aug-21 22:32N 33°37' W 117°55'0 0.0
2016-Aug-21 21:32N 33°37' W 117°55'0 0.0
2016-Aug-21 20:32N 33°37' W 117°55'0 0.0
2016-Aug-21 19:32N 33°37' W 117°55'0 0.0
2016-Aug-21 18:32N 33°37' W 117°55'0 0.0
2016-Aug-21 17:29N 33°37' W 117°55'0 0.0
2016-Aug-21 16:32N 33°37' W 117°55'0 0.0
2016-Aug-21 15:32N 33°37' W 117°55'0 0.0
2016-Aug-21 14:32N 33°37' W 117°55'0 0.0
2016-Aug-21 13:32N 33°37' W 117°55'0 0.0
2016-Aug-21 12:29N 33°37' W 117°55'0 0.0
2016-Aug-21 11:32N 33°37' W 117°55'0 0.0
2016-Aug-21 10:32N 33°37' W 117°55'0 0.0
2016-Aug-21 09:32N 33°37' W 117°55'0 0.0
2016-Aug-21 08:32N 33°37' W 117°55'0 0.0
2016-Aug-21 07:32N 33°37' W 117°55'0 0.0
2016-Aug-21 06:32N 33°37' W 117°55'0 0.0
2016-Aug-21 05:32N 33°37' W 117°55'0 0.0
2016-Aug-21 04:32N 33°37' W 117°55'0 0.0
2016-Aug-21 03:32N 33°37' W 117°55'0 0.0
2016-Aug-21 02:32N 33°37' W 117°55'0 0.0
2016-Aug-21 01:32N 33°37' W 117°55'0 0.0
2016-Aug-21 00:32N 33°37' W 117°55'0 0.0
2016-Aug-20 23:32N 33°37' W 117°55'0 0.0
2016-Aug-20 22:32N 33°37' W 117°55'0 0.0
2016-Aug-20 21:32N 33°37' W 117°55'0 0.0
2016-Aug-20 20:32N 33°37' W 117°55'0 0.0
2016-Aug-20 19:32N 33°37' W 117°55'0 0.0
2016-Aug-20 18:29N 33°37' W 117°55'0 0.0
2016-Aug-20 17:32N 33°37' W 117°55'0 0.0
2016-Aug-20 16:32N 33°37' W 117°55'0 0.0
2016-Aug-20 15:32N 33°37' W 117°55'0 0.0
2016-Aug-20 14:32N 33°37' W 117°55'0 0.0
2016-Aug-20 13:32N 33°37' W 117°55'0 0.0
2016-Aug-20 12:29N 33°37' W 117°55'0 0.0
2016-Aug-20 11:32N 33°37' W 117°55'0 0.0
2016-Aug-20 10:32N 33°37' W 117°55'0 0.0
2016-Aug-20 09:32N 33°37' W 117°55'0 0.0
2016-Aug-20 08:32N 33°37' W 117°55'0 0.0
2016-Aug-20 07:32N 33°37' W 117°55'0 0.0
2016-Aug-20 06:32N 33°37' W 117°55'0 0.0
2016-Aug-20 05:23N 33°37' W 117°55'0 0.0
2016-Aug-20 04:29N 33°37' W 117°55'0 0.0
2016-Aug-20 03:32N 33°37' W 117°55'0 0.0
2016-Aug-20 02:29N 33°37' W 117°55'0 0.0
2016-Aug-20 01:32N 33°37' W 117°55'0 0.0
2016-Aug-20 00:32N 33°37' W 117°55'0 0.0
2016-Aug-19 23:32N 33°37' W 117°55'0 0.0
2016-Aug-19 22:32N 33°37' W 117°55'0 0.0
2016-Aug-19 21:32N 33°37' W 117°55'0 0.0
2016-Aug-19 20:32N 33°37' W 117°55'0 0.0
2016-Aug-19 19:32N 33°37' W 117°55'  

Dump ship's entire track history